sensor_id;sensor_type;location;lat;lon;timestamp;P1;durP1;ratioP1;P2;durP2;ratioP2
39896;SDS011;25567;48.276;14.242;2023-07-29T00:00:02;4.15;;;2.20;;
39896;SDS011;25567;48.276;14.242;2023-07-29T00:02:29;6.00;;;2.00;;
39896;SDS011;25567;48.276;14.242;2023-07-29T00:04:57;4.70;;;1.95;;
39896;SDS011;25567;48.276;14.242;2023-07-29T00:07:23;4.20;;;2.03;;
39896;SDS011;25567;48.276;14.242;2023-07-29T00:09:50;5.38;;;2.10;;
39896;SDS011;25567;48.276;14.242;2023-07-29T00:12:16;7.38;;;2.28;;
39896;SDS011;25567;48.276;14.242;2023-07-29T00:14:43;5.72;;;2.28;;
39896;SDS011;25567;48.276;14.242;2023-07-29T00:17:09;3.92;;;2.03;;
39896;SDS011;25567;48.276;14.242;2023-07-29T00:19:36;5.30;;;1.98;;
39896;SDS011;25567;48.276;14.242;2023-07-29T00:22:02;4.30;;;1.95;;
39896;SDS011;25567;48.276;14.242;2023-07-29T00:24:29;2.95;;;1.67;;
39896;SDS011;25567;48.276;14.242;2023-07-29T00:26:56;7.75;;;2.30;;
39896;SDS011;25567;48.276;14.242;2023-07-29T00:29:22;5.88;;;2.10;;
39896;SDS011;25567;48.276;14.242;2023-07-29T00:31:49;3.95;;;1.92;;
39896;SDS011;25567;48.276;14.242;2023-07-29T00:34:15;2.80;;;1.83;;
39896;SDS011;25567;48.276;14.242;2023-07-29T00:36:45;3.35;;;1.90;;
39896;SDS011;25567;48.276;14.242;2023-07-29T00:39:12;2.92;;;1.77;;
39896;SDS011;25567;48.276;14.242;2023-07-29T00:41:39;4.47;;;2.08;;
39896;SDS011;25567;48.276;14.242;2023-07-29T00:44:06;3.65;;;1.92;;
39896;SDS011;25567;48.276;14.242;2023-07-29T00:46:33;3.03;;;1.50;;
39896;SDS011;25567;48.276;14.242;2023-07-29T00:49:01;4.57;;;2.10;;
39896;SDS011;25567;48.276;14.242;2023-07-29T00:51:28;5.53;;;2.30;;
39896;SDS011;25567;48.276;14.242;2023-07-29T00:53:54;5.03;;;1.90;;
39896;SDS011;25567;48.276;14.242;2023-07-29T00:56:21;4.00;;;1.70;;
39896;SDS011;25567;48.276;14.242;2023-07-29T00:58:47;4.18;;;1.85;;
39896;SDS011;25567;48.276;14.242;2023-07-29T01:01:14;4.32;;;1.90;;
39896;SDS011;25567;48.276;14.242;2023-07-29T01:03:41;3.53;;;1.67;;
39896;SDS011;25567;48.276;14.242;2023-07-29T01:08:47;4.85;;;1.98;;
39896;SDS011;25567;48.276;14.242;2023-07-29T01:11:33;3.97;;;1.70;;
39896;SDS011;25567;48.276;14.242;2023-07-29T01:14:28;4.20;;;2.03;;
39896;SDS011;25567;48.276;14.242;2023-07-29T01:21:54;4.80;;;1.67;;
39896;SDS011;25567;48.276;14.242;2023-07-29T01:24:21;3.30;;;1.73;;
39896;SDS011;25567;48.276;14.242;2023-07-29T01:26:47;3.13;;;1.77;;
39896;SDS011;25567;48.276;14.242;2023-07-29T01:29:14;3.05;;;1.65;;
39896;SDS011;25567;48.276;14.242;2023-07-29T01:31:43;6.75;;;1.75;;
39896;SDS011;25567;48.276;14.242;2023-07-29T01:34:13;3.95;;;1.98;;
39896;SDS011;25567;48.276;14.242;2023-07-29T01:36:43;3.78;;;2.03;;
39896;SDS011;25567;48.276;14.242;2023-07-29T01:39:13;3.00;;;2.03;;
39896;SDS011;25567;48.276;14.242;2023-07-29T01:41:40;5.05;;;1.83;;
39896;SDS011;25567;48.276;14.242;2023-07-29T01:44:07;5.57;;;2.10;;
39896;SDS011;25567;48.276;14.242;2023-07-29T01:46:34;5.40;;;1.80;;
39896;SDS011;25567;48.276;14.242;2023-07-29T01:49:01;2.88;;;1.75;;
39896;SDS011;25567;48.276;14.242;2023-07-29T01:51:27;4.68;;;1.88;;
39896;SDS011;25567;48.276;14.242;2023-07-29T01:53:54;5.25;;;2.25;;
39896;SDS011;25567;48.276;14.242;2023-07-29T01:56:21;6.35;;;2.30;;
39896;SDS011;25567;48.276;14.242;2023-07-29T01:58:48;3.47;;;1.90;;
39896;SDS011;25567;48.276;14.242;2023-07-29T02:01:15;3.70;;;1.63;;
39896;SDS011;25567;48.276;14.242;2023-07-29T02:03:42;4.03;;;1.95;;
39896;SDS011;25567;48.276;14.242;2023-07-29T02:06:08;4.97;;;2.05;;
39896;SDS011;25567;48.276;14.242;2023-07-29T02:08:36;5.45;;;2.17;;
39896;SDS011;25567;48.276;14.242;2023-07-29T02:11:02;2.60;;;1.60;;
39896;SDS011;25567;48.276;14.242;2023-07-29T02:13:29;4.65;;;1.65;;
39896;SDS011;25567;48.276;14.242;2023-07-29T02:15:55;4.10;;;1.63;;
39896;SDS011;25567;48.276;14.242;2023-07-29T02:18:21;6.88;;;2.20;;
39896;SDS011;25567;48.276;14.242;2023-07-29T02:20:48;2.53;;;1.98;;
39896;SDS011;25567;48.276;14.242;2023-07-29T02:23:16;4.68;;;2.33;;
39896;SDS011;25567;48.276;14.242;2023-07-29T02:25:45;3.53;;;2.13;;
39896;SDS011;25567;48.276;14.242;2023-07-29T02:28:11;4.45;;;2.13;;
39896;SDS011;25567;48.276;14.242;2023-07-29T02:30:40;3.85;;;1.77;;
39896;SDS011;25567;48.276;14.242;2023-07-29T02:33:07;6.63;;;2.05;;
39896;SDS011;25567;48.276;14.242;2023-07-29T02:35:33;4.90;;;1.90;;
39896;SDS011;25567;48.276;14.242;2023-07-29T02:38:00;4.18;;;1.80;;
39896;SDS011;25567;48.276;14.242;2023-07-29T02:40:26;6.65;;;2.25;;
39896;SDS011;25567;48.276;14.242;2023-07-29T02:42:55;3.13;;;1.67;;
39896;SDS011;25567;48.276;14.242;2023-07-29T02:45:21;3.67;;;2.40;;
39896;SDS011;25567;48.276;14.242;2023-07-29T02:47:48;6.10;;;2.13;;
39896;SDS011;25567;48.276;14.242;2023-07-29T02:50:15;5.05;;;2.15;;
39896;SDS011;25567;48.276;14.242;2023-07-29T02:52:41;4.18;;;2.00;;
39896;SDS011;25567;48.276;14.242;2023-07-29T02:55:08;5.40;;;1.55;;
39896;SDS011;25567;48.276;14.242;2023-07-29T02:57:34;3.55;;;1.80;;
39896;SDS011;25567;48.276;14.242;2023-07-29T03:00:01;5.50;;;1.90;;
39896;SDS011;25567;48.276;14.242;2023-07-29T03:02:27;3.92;;;2.17;;
39896;SDS011;25567;48.276;14.242;2023-07-29T03:04:54;4.22;;;2.22;;
39896;SDS011;25567;48.276;14.242;2023-07-29T03:07:21;4.43;;;1.75;;
39896;SDS011;25567;48.276;14.242;2023-07-29T03:09:47;3.42;;;1.98;;
39896;SDS011;25567;48.276;14.242;2023-07-29T03:12:14;4.45;;;2.08;;
39896;SDS011;25567;48.276;14.242;2023-07-29T03:14:40;7.70;;;2.30;;
39896;SDS011;25567;48.276;14.242;2023-07-29T03:17:07;7.38;;;2.38;;
39896;SDS011;25567;48.276;14.242;2023-07-29T03:19:34;7.63;;;2.25;;
39896;SDS011;25567;48.276;14.242;2023-07-29T03:22:01;3.35;;;1.77;;
39896;SDS011;25567;48.276;14.242;2023-07-29T03:24:27;5.20;;;2.08;;
39896;SDS011;25567;48.276;14.242;2023-07-29T03:26:55;3.55;;;2.10;;
39896;SDS011;25567;48.276;14.242;2023-07-29T03:29:21;5.75;;;2.38;;
39896;SDS011;25567;48.276;14.242;2023-07-29T03:31:48;4.97;;;2.50;;
39896;SDS011;25567;48.276;14.242;2023-07-29T03:34:14;7.05;;;2.50;;
39896;SDS011;25567;48.276;14.242;2023-07-29T03:36:41;4.93;;;2.28;;
39896;SDS011;25567;48.276;14.242;2023-07-29T03:39:07;7.93;;;2.60;;
39896;SDS011;25567;48.276;14.242;2023-07-29T03:41:34;5.30;;;2.55;;
39896;SDS011;25567;48.276;14.242;2023-07-29T03:44:00;5.97;;;2.70;;
39896;SDS011;25567;48.276;14.242;2023-07-29T03:46:27;6.50;;;2.58;;
39896;SDS011;25567;48.276;14.242;2023-07-29T03:48:54;11.15;;;3.10;;
39896;SDS011;25567;48.276;14.242;2023-07-29T03:51:20;8.88;;;3.22;;
39896;SDS011;25567;48.276;14.242;2023-07-29T03:53:48;8.55;;;2.75;;
39896;SDS011;25567;48.276;14.242;2023-07-29T03:56:14;4.10;;;2.90;;
39896;SDS011;25567;48.276;14.242;2023-07-29T03:58:41;7.03;;;2.70;;
39896;SDS011;25567;48.276;14.242;2023-07-29T04:01:07;6.38;;;2.47;;
39896;SDS011;25567;48.276;14.242;2023-07-29T04:03:34;4.57;;;2.53;;
39896;SDS011;25567;48.276;14.242;2023-07-29T04:06:01;9.43;;;2.53;;
39896;SDS011;25567;48.276;14.242;2023-07-29T04:08:27;7.55;;;2.40;;
39896;SDS011;25567;48.276;14.242;2023-07-29T04:10:54;4.72;;;2.78;;
39896;SDS011;25567;48.276;14.242;2023-07-29T04:13:20;3.83;;;1.95;;
39896;SDS011;25567;48.276;14.242;2023-07-29T04:15:47;4.50;;;2.22;;
39896;SDS011;25567;48.276;14.242;2023-07-29T04:18:13;5.68;;;2.20;;
39896;SDS011;25567;48.276;14.242;2023-07-29T04:20:40;6.53;;;2.30;;
39896;SDS011;25567;48.276;14.242;2023-07-29T04:23:06;4.63;;;2.38;;
39896;SDS011;25567;48.276;14.242;2023-07-29T04:25:33;5.20;;;2.28;;
39896;SDS011;25567;48.276;14.242;2023-07-29T04:27:59;7.25;;;2.55;;
39896;SDS011;25567;48.276;14.242;2023-07-29T04:30:26;4.53;;;2.30;;
39896;SDS011;25567;48.276;14.242;2023-07-29T04:32:53;6.07;;;2.85;;
39896;SDS011;25567;48.276;14.242;2023-07-29T04:35:19;6.32;;;2.47;;
39896;SDS011;25567;48.276;14.242;2023-07-29T04:37:46;4.28;;;2.15;;
39896;SDS011;25567;48.276;14.242;2023-07-29T04:40:14;6.70;;;2.92;;
39896;SDS011;25567;48.276;14.242;2023-07-29T04:42:41;4.45;;;2.20;;
39896;SDS011;25567;48.276;14.242;2023-07-29T04:45:07;6.88;;;2.20;;
39896;SDS011;25567;48.276;14.242;2023-07-29T04:47:34;8.02;;;2.53;;
39896;SDS011;25567;48.276;14.242;2023-07-29T04:50:00;5.40;;;2.22;;
39896;SDS011;25567;48.276;14.242;2023-07-29T04:52:27;8.02;;;2.70;;
39896;SDS011;25567;48.276;14.242;2023-07-29T04:54:53;4.30;;;2.30;;
39896;SDS011;25567;48.276;14.242;2023-07-29T04:57:20;4.85;;;2.55;;
39896;SDS011;25567;48.276;14.242;2023-07-29T04:59:46;3.47;;;2.15;;
39896;SDS011;25567;48.276;14.242;2023-07-29T05:02:13;5.82;;;2.63;;
39896;SDS011;25567;48.276;14.242;2023-07-29T05:04:40;5.22;;;2.83;;
39896;SDS011;25567;48.276;14.242;2023-07-29T05:07:06;4.97;;;2.28;;
39896;SDS011;25567;48.276;14.242;2023-07-29T05:09:33;4.88;;;2.80;;
39896;SDS011;25567;48.276;14.242;2023-07-29T05:11:59;5.25;;;2.85;;
39896;SDS011;25567;48.276;14.242;2023-07-29T05:14:26;3.55;;;2.28;;
39896;SDS011;25567;48.276;14.242;2023-07-29T05:16:52;5.38;;;2.70;;
39896;SDS011;25567;48.276;14.242;2023-07-29T05:19:19;6.22;;;2.42;;
39896;SDS011;25567;48.276;14.242;2023-07-29T05:21:45;5.78;;;2.53;;
39896;SDS011;25567;48.276;14.242;2023-07-29T05:24:12;5.40;;;2.45;;
39896;SDS011;25567;48.276;14.242;2023-07-29T05:26:39;8.80;;;2.67;;
39896;SDS011;25567;48.276;14.242;2023-07-29T05:29:05;6.20;;;2.65;;
39896;SDS011;25567;48.276;14.242;2023-07-29T05:31:33;4.40;;;2.55;;
39896;SDS011;25567;48.276;14.242;2023-07-29T05:33:59;5.45;;;3.00;;
39896;SDS011;25567;48.276;14.242;2023-07-29T05:36:26;4.40;;;2.70;;
39896;SDS011;25567;48.276;14.242;2023-07-29T05:38:52;9.13;;;2.95;;
39896;SDS011;25567;48.276;14.242;2023-07-29T05:41:19;4.75;;;2.78;;
39896;SDS011;25567;48.276;14.242;2023-07-29T05:43:46;6.32;;;3.13;;
39896;SDS011;25567;48.276;14.242;2023-07-29T05:46:13;8.60;;;3.15;;
39896;SDS011;25567;48.276;14.242;2023-07-29T05:48:39;7.20;;;2.60;;
39896;SDS011;25567;48.276;14.242;2023-07-29T05:51:06;4.90;;;2.80;;
39896;SDS011;25567;48.276;14.242;2023-07-29T05:53:32;5.05;;;2.75;;
39896;SDS011;25567;48.276;14.242;2023-07-29T05:55:59;4.95;;;2.88;;
39896;SDS011;25567;48.276;14.242;2023-07-29T05:58:25;4.95;;;2.45;;
39896;SDS011;25567;48.276;14.242;2023-07-29T06:00:52;5.07;;;2.38;;
39896;SDS011;25567;48.276;14.242;2023-07-29T06:03:18;4.10;;;2.58;;
39896;SDS011;25567;48.276;14.242;2023-07-29T06:05:45;5.30;;;2.50;;
39896;SDS011;25567;48.276;14.242;2023-07-29T06:08:12;4.85;;;1.98;;
39896;SDS011;25567;48.276;14.242;2023-07-29T06:10:38;4.80;;;2.50;;
39896;SDS011;25567;48.276;14.242;2023-07-29T06:13:05;5.30;;;2.67;;
39896;SDS011;25567;48.276;14.242;2023-07-29T06:15:32;5.65;;;2.25;;
39896;SDS011;25567;48.276;14.242;2023-07-29T06:17:59;4.53;;;2.50;;
39896;SDS011;25567;48.276;14.242;2023-07-29T06:20:25;6.05;;;2.58;;
39896;SDS011;25567;48.276;14.242;2023-07-29T06:22:52;5.85;;;2.47;;
39896;SDS011;25567;48.276;14.242;2023-07-29T06:25:19;6.32;;;3.40;;
39896;SDS011;25567;48.276;14.242;2023-07-29T06:27:45;5.00;;;2.50;;
39896;SDS011;25567;48.276;14.242;2023-07-29T06:30:12;4.22;;;2.40;;
39896;SDS011;25567;48.276;14.242;2023-07-29T06:32:38;4.50;;;2.40;;
39896;SDS011;25567;48.276;14.242;2023-07-29T06:35:05;4.25;;;2.28;;
39896;SDS011;25567;48.276;14.242;2023-07-29T06:37:32;5.45;;;2.45;;
39896;SDS011;25567;48.276;14.242;2023-07-29T06:39:59;4.88;;;2.45;;
39896;SDS011;25567;48.276;14.242;2023-07-29T06:42:26;3.50;;;2.05;;
39896;SDS011;25567;48.276;14.242;2023-07-29T06:44:52;7.38;;;2.30;;
39896;SDS011;25567;48.276;14.242;2023-07-29T06:47:19;3.50;;;1.90;;
39896;SDS011;25567;48.276;14.242;2023-07-29T06:49:45;4.85;;;1.85;;
39896;SDS011;25567;48.276;14.242;2023-07-29T06:52:12;2.60;;;1.67;;
39896;SDS011;25567;48.276;14.242;2023-07-29T06:54:38;3.03;;;1.75;;
39896;SDS011;25567;48.276;14.242;2023-07-29T06:57:05;4.75;;;2.10;;
39896;SDS011;25567;48.276;14.242;2023-07-29T06:59:32;6.38;;;2.78;;
39896;SDS011;25567;48.276;14.242;2023-07-29T07:01:58;4.00;;;1.85;;
39896;SDS011;25567;48.276;14.242;2023-07-29T07:04:26;3.60;;;2.05;;
39896;SDS011;25567;48.276;14.242;2023-07-29T07:06:53;3.25;;;1.77;;
39896;SDS011;25567;48.276;14.242;2023-07-29T07:09:19;2.70;;;1.88;;
39896;SDS011;25567;48.276;14.242;2023-07-29T07:11:46;5.82;;;2.10;;
39896;SDS011;25567;48.276;14.242;2023-07-29T07:14:12;5.60;;;1.77;;
39896;SDS011;25567;48.276;14.242;2023-07-29T07:16:39;3.38;;;1.67;;
39896;SDS011;25567;48.276;14.242;2023-07-29T07:19:06;2.53;;;1.60;;
39896;SDS011;25567;48.276;14.242;2023-07-29T07:21:32;3.67;;;2.00;;
39896;SDS011;25567;48.276;14.242;2023-07-29T07:23:59;3.88;;;1.73;;
39896;SDS011;25567;48.276;14.242;2023-07-29T07:26:25;3.88;;;1.77;;
39896;SDS011;25567;48.276;14.242;2023-07-29T07:28:52;3.15;;;1.42;;
39896;SDS011;25567;48.276;14.242;2023-07-29T07:31:18;1.90;;;1.33;;
39896;SDS011;25567;48.276;14.242;2023-07-29T07:33:46;3.03;;;1.85;;
39896;SDS011;25567;48.276;14.242;2023-07-29T07:36:12;2.72;;;1.35;;
39896;SDS011;25567;48.276;14.242;2023-07-29T07:38:39;2.80;;;1.10;;
39896;SDS011;25567;48.276;14.242;2023-07-29T07:41:05;3.83;;;1.45;;
39896;SDS011;25567;48.276;14.242;2023-07-29T07:43:32;1.15;;;0.90;;
39896;SDS011;25567;48.276;14.242;2023-07-29T07:45:59;2.13;;;1.20;;
39896;SDS011;25567;48.276;14.242;2023-07-29T07:48:26;2.95;;;1.38;;
39896;SDS011;25567;48.276;14.242;2023-07-29T07:50:53;2.83;;;1.60;;
39896;SDS011;25567;48.276;14.242;2023-07-29T07:53:19;4.25;;;1.40;;
39896;SDS011;25567;48.276;14.242;2023-07-29T07:55:46;3.60;;;1.52;;
39896;SDS011;25567;48.276;14.242;2023-07-29T07:58:13;3.30;;;1.55;;
39896;SDS011;25567;48.276;14.242;2023-07-29T08:00:39;3.15;;;1.40;;
39896;SDS011;25567;48.276;14.242;2023-07-29T08:03:06;5.70;;;1.40;;
39896;SDS011;25567;48.276;14.242;2023-07-29T08:05:33;2.08;;;1.45;;
39896;SDS011;25567;48.276;14.242;2023-07-29T08:07:59;4.00;;;1.40;;
39896;SDS011;25567;48.276;14.242;2023-07-29T08:10:26;5.90;;;1.50;;
39896;SDS011;25567;48.276;14.242;2023-07-29T08:12:52;2.85;;;1.80;;
39896;SDS011;25567;48.276;14.242;2023-07-29T08:15:19;2.50;;;1.30;;
39896;SDS011;25567;48.276;14.242;2023-07-29T08:17:46;3.17;;;1.00;;
39896;SDS011;25567;48.276;14.242;2023-07-29T08:20:12;3.03;;;1.52;;
39896;SDS011;25567;48.276;14.242;2023-07-29T08:22:39;1.95;;;1.30;;
39896;SDS011;25567;48.276;14.242;2023-07-29T08:25:05;1.75;;;1.10;;
39896;SDS011;25567;48.276;14.242;2023-07-29T08:27:33;2.53;;;1.50;;
39896;SDS011;25567;48.276;14.242;2023-07-29T08:29:59;2.00;;;1.10;;
39896;SDS011;25567;48.276;14.242;2023-07-29T08:32:26;1.90;;;1.30;;
39896;SDS011;25567;48.276;14.242;2023-07-29T08:34:52;2.55;;;1.38;;
39896;SDS011;25567;48.276;14.242;2023-07-29T08:37:19;2.78;;;1.80;;
39896;SDS011;25567;48.276;14.242;2023-07-29T08:39:45;3.17;;;1.30;;
39896;SDS011;25567;48.276;14.242;2023-07-29T08:42:12;1.65;;;1.30;;
39896;SDS011;25567;48.276;14.242;2023-07-29T08:44:42;1.65;;;1.25;;
39896;SDS011;25567;48.276;14.242;2023-07-29T08:47:09;5.25;;;1.73;;
39896;SDS011;25567;48.276;14.242;2023-07-29T08:49:36;3.33;;;1.50;;
39896;SDS011;25567;48.276;14.242;2023-07-29T08:52:03;3.60;;;1.52;;
39896;SDS011;25567;48.276;14.242;2023-07-29T08:54:30;4.05;;;1.58;;
39896;SDS011;25567;48.276;14.242;2023-07-29T08:56:57;2.25;;;1.48;;
39896;SDS011;25567;48.276;14.242;2023-07-29T08:59:25;3.28;;;1.65;;
39896;SDS011;25567;48.276;14.242;2023-07-29T09:01:52;2.95;;;1.48;;
39896;SDS011;25567;48.276;14.242;2023-07-29T09:04:21;5.13;;;1.42;;
39896;SDS011;25567;48.276;14.242;2023-07-29T09:06:50;2.90;;;1.67;;
39896;SDS011;25567;48.276;14.242;2023-07-29T09:09:16;5.03;;;1.73;;
39896;SDS011;25567;48.276;14.242;2023-07-29T09:11:43;2.97;;;1.77;;
39896;SDS011;25567;48.276;14.242;2023-07-29T09:14:10;5.72;;;1.52;;
39896;SDS011;25567;48.276;14.242;2023-07-29T09:16:36;5.07;;;1.65;;
39896;SDS011;25567;48.276;14.242;2023-07-29T09:19:04;3.10;;;1.65;;
39896;SDS011;25567;48.276;14.242;2023-07-29T09:21:31;2.35;;;1.60;;
39896;SDS011;25567;48.276;14.242;2023-07-29T09:23:58;2.38;;;1.42;;
39896;SDS011;25567;48.276;14.242;2023-07-29T09:26:28;2.28;;;1.42;;
39896;SDS011;25567;48.276;14.242;2023-07-29T09:28:55;5.55;;;1.70;;
39896;SDS011;25567;48.276;14.242;2023-07-29T09:31:23;2.72;;;1.73;;
39896;SDS011;25567;48.276;14.242;2023-07-29T09:33:50;3.75;;;1.65;;
39896;SDS011;25567;48.276;14.242;2023-07-29T09:36:16;4.75;;;1.90;;
39896;SDS011;25567;48.276;14.242;2023-07-29T09:38:43;3.00;;;1.70;;
39896;SDS011;25567;48.276;14.242;2023-07-29T09:41:11;2.65;;;1.55;;
39896;SDS011;25567;48.276;14.242;2023-07-29T09:43:38;3.30;;;1.67;;
39896;SDS011;25567;48.276;14.242;2023-07-29T09:46:05;2.85;;;1.75;;
39896;SDS011;25567;48.276;14.242;2023-07-29T09:48:34;3.17;;;1.42;;
39896;SDS011;25567;48.276;14.242;2023-07-29T09:51:14;4.07;;;1.90;;
39896;SDS011;25567;48.276;14.242;2023-07-29T09:53:44;2.85;;;1.90;;
39896;SDS011;25567;48.276;14.242;2023-07-29T09:56:13;3.58;;;1.75;;
39896;SDS011;25567;48.276;14.242;2023-07-29T09:58:40;3.88;;;1.98;;
39896;SDS011;25567;48.276;14.242;2023-07-29T10:01:08;2.65;;;1.73;;
39896;SDS011;25567;48.276;14.242;2023-07-29T10:03:35;5.07;;;2.03;;
39896;SDS011;25567;48.276;14.242;2023-07-29T10:06:02;3.30;;;1.75;;
39896;SDS011;25567;48.276;14.242;2023-07-29T10:08:30;5.32;;;1.98;;
39896;SDS011;25567;48.276;14.242;2023-07-29T10:10:59;4.70;;;2.35;;
39896;SDS011;25567;48.276;14.242;2023-07-29T10:13:26;4.97;;;2.40;;
39896;SDS011;25567;48.276;14.242;2023-07-29T10:15:55;4.35;;;2.50;;
39896;SDS011;25567;48.276;14.242;2023-07-29T10:18:22;6.97;;;2.22;;
39896;SDS011;25567;48.276;14.242;2023-07-29T10:20:50;3.65;;;2.20;;
39896;SDS011;25567;48.276;14.242;2023-07-29T10:23:17;6.77;;;2.40;;
39896;SDS011;25567;48.276;14.242;2023-07-29T10:25:49;3.58;;;2.33;;
39896;SDS011;25567;48.276;14.242;2023-07-29T10:28:17;6.60;;;2.33;;
39896;SDS011;25567;48.276;14.242;2023-07-29T10:30:45;3.20;;;2.05;;
39896;SDS011;25567;48.276;14.242;2023-07-29T10:33:11;4.43;;;2.22;;
39896;SDS011;25567;48.276;14.242;2023-07-29T10:35:38;4.40;;;2.88;;
39896;SDS011;25567;48.276;14.242;2023-07-29T10:38:06;5.53;;;2.30;;
39896;SDS011;25567;48.276;14.242;2023-07-29T10:40:52;5.50;;;2.35;;
39896;SDS011;25567;48.276;14.242;2023-07-29T10:43:32;3.63;;;2.22;;
39896;SDS011;25567;48.276;14.242;2023-07-29T10:46:21;5.22;;;2.42;;
39896;SDS011;25567;48.276;14.242;2023-07-29T10:48:52;3.50;;;2.15;;
39896;SDS011;25567;48.276;14.242;2023-07-29T10:53:53;4.10;;;2.33;;
39896;SDS011;25567;48.276;14.242;2023-07-29T10:56:27;7.93;;;2.30;;
39896;SDS011;25567;48.276;14.242;2023-07-29T10:58:58;4.65;;;2.53;;
39896;SDS011;25567;48.276;14.242;2023-07-29T11:01:28;6.13;;;2.70;;
39896;SDS011;25567;48.276;14.242;2023-07-29T11:04:21;3.90;;;2.20;;
39896;SDS011;25567;48.276;14.242;2023-07-29T11:17:35;5.28;;;2.63;;
39896;SDS011;25567;48.276;14.242;2023-07-29T11:20:02;6.22;;;2.05;;
39896;SDS011;25567;48.276;14.242;2023-07-29T11:22:29;5.30;;;2.53;;
39896;SDS011;25567;48.276;14.242;2023-07-29T11:24:59;4.25;;;2.60;;
39896;SDS011;25567;48.276;14.242;2023-07-29T11:27:26;17.67;;;2.63;;
39896;SDS011;25567;48.276;14.242;2023-07-29T11:29:59;10.68;;;2.00;;
39896;SDS011;25567;48.276;14.242;2023-07-29T11:32:26;7.15;;;2.13;;
39896;SDS011;25567;48.276;14.242;2023-07-29T11:34:53;7.18;;;2.58;;
39896;SDS011;25567;48.276;14.242;2023-07-29T11:37:19;3.35;;;2.03;;
39896;SDS011;25567;48.276;14.242;2023-07-29T11:39:49;4.35;;;2.10;;
39896;SDS011;25567;48.276;14.242;2023-07-29T11:42:15;4.30;;;2.25;;
39896;SDS011;25567;48.276;14.242;2023-07-29T11:44:42;5.30;;;2.20;;
39896;SDS011;25567;48.276;14.242;2023-07-29T11:47:09;4.30;;;2.33;;
39896;SDS011;25567;48.276;14.242;2023-07-29T11:49:37;4.18;;;2.10;;
39896;SDS011;25567;48.276;14.242;2023-07-29T11:52:05;5.07;;;2.22;;
39896;SDS011;25567;48.276;14.242;2023-07-29T11:54:32;4.60;;;2.00;;
39896;SDS011;25567;48.276;14.242;2023-07-29T11:56:58;4.38;;;2.20;;
39896;SDS011;25567;48.276;14.242;2023-07-29T11:59:25;3.70;;;2.10;;
39896;SDS011;25567;48.276;14.242;2023-07-29T12:01:53;6.32;;;2.50;;
39896;SDS011;25567;48.276;14.242;2023-07-29T12:04:20;3.47;;;2.25;;
39896;SDS011;25567;48.276;14.242;2023-07-29T12:06:46;7.13;;;2.38;;
39896;SDS011;25567;48.276;14.242;2023-07-29T12:09:13;4.63;;;1.80;;
39896;SDS011;25567;48.276;14.242;2023-07-29T12:11:39;4.13;;;2.33;;
39896;SDS011;25567;48.276;14.242;2023-07-29T12:14:09;3.22;;;1.65;;
39896;SDS011;25567;48.276;14.242;2023-07-29T12:16:42;4.22;;;1.88;;
39896;SDS011;25567;48.276;14.242;2023-07-29T12:19:12;5.70;;;2.17;;
39896;SDS011;25567;48.276;14.242;2023-07-29T12:21:42;6.93;;;2.35;;
39896;SDS011;25567;48.276;14.242;2023-07-29T12:24:09;8.38;;;2.20;;
39896;SDS011;25567;48.276;14.242;2023-07-29T12:26:36;4.43;;;2.35;;
39896;SDS011;25567;48.276;14.242;2023-07-29T12:29:17;2.92;;;2.05;;
39896;SDS011;25567;48.276;14.242;2023-07-29T12:31:46;6.13;;;2.20;;
39896;SDS011;25567;48.276;14.242;2023-07-29T12:34:21;4.22;;;2.13;;
39896;SDS011;25567;48.276;14.242;2023-07-29T12:36:49;3.15;;;2.25;;
39896;SDS011;25567;48.276;14.242;2023-07-29T12:39:20;4.45;;;2.22;;
39896;SDS011;25567;48.276;14.242;2023-07-29T12:41:47;11.27;;;2.60;;
39896;SDS011;25567;48.276;14.242;2023-07-29T12:44:14;5.82;;;2.13;;
39896;SDS011;25567;48.276;14.242;2023-07-29T12:46:42;3.47;;;2.17;;
39896;SDS011;25567;48.276;14.242;2023-07-29T12:49:08;4.28;;;2.38;;
39896;SDS011;25567;48.276;14.242;2023-07-29T12:51:35;3.28;;;2.20;;
39896;SDS011;25567;48.276;14.242;2023-07-29T12:54:03;5.43;;;2.20;;
39896;SDS011;25567;48.276;14.242;2023-07-29T12:56:30;3.72;;;2.40;;
39896;SDS011;25567;48.276;14.242;2023-07-29T12:58:58;4.47;;;2.17;;
39896;SDS011;25567;48.276;14.242;2023-07-29T13:01:27;5.95;;;2.35;;
39896;SDS011;25567;48.276;14.242;2023-07-29T13:03:54;5.75;;;1.95;;
39896;SDS011;25567;48.276;14.242;2023-07-29T13:06:21;3.05;;;1.92;;
39896;SDS011;25567;48.276;14.242;2023-07-29T13:08:47;3.38;;;2.03;;
39896;SDS011;25567;48.276;14.242;2023-07-29T13:11:14;4.13;;;2.35;;
39896;SDS011;25567;48.276;14.242;2023-07-29T13:13:41;4.88;;;2.33;;
39896;SDS011;25567;48.276;14.242;2023-07-29T13:16:08;4.40;;;2.20;;
39896;SDS011;25567;48.276;14.242;2023-07-29T13:18:34;3.13;;;2.03;;
39896;SDS011;25567;48.276;14.242;2023-07-29T13:21:01;3.85;;;2.33;;
39896;SDS011;25567;48.276;14.242;2023-07-29T13:23:27;4.15;;;2.28;;
39896;SDS011;25567;48.276;14.242;2023-07-29T13:25:56;3.50;;;2.20;;
39896;SDS011;25567;48.276;14.242;2023-07-29T13:28:23;4.45;;;2.38;;
39896;SDS011;25567;48.276;14.242;2023-07-29T13:30:49;5.20;;;2.70;;
39896;SDS011;25567;48.276;14.242;2023-07-29T13:33:16;3.22;;;2.17;;
39896;SDS011;25567;48.276;14.242;2023-07-29T13:35:43;4.82;;;2.20;;
39896;SDS011;25567;48.276;14.242;2023-07-29T13:38:09;6.57;;;2.38;;
39896;SDS011;25567;48.276;14.242;2023-07-29T13:40:37;3.65;;;3.00;;
39896;SDS011;25567;48.276;14.242;2023-07-29T13:43:04;3.40;;;2.17;;
39896;SDS011;25567;48.276;14.242;2023-07-29T13:45:30;4.43;;;2.42;;
39896;SDS011;25567;48.276;14.242;2023-07-29T13:47:57;4.22;;;2.20;;
39896;SDS011;25567;48.276;14.242;2023-07-29T13:50:24;3.63;;;2.15;;
39896;SDS011;25567;48.276;14.242;2023-07-29T13:52:50;4.05;;;2.47;;
39896;SDS011;25567;48.276;14.242;2023-07-29T13:55:17;6.85;;;2.03;;
39896;SDS011;25567;48.276;14.242;2023-07-29T13:57:43;3.47;;;1.48;;
39896;SDS011;25567;48.276;14.242;2023-07-29T14:00:10;3.88;;;1.70;;
39896;SDS011;25567;48.276;14.242;2023-07-29T14:02:37;3.30;;;1.70;;
39896;SDS011;25567;48.276;14.242;2023-07-29T14:05:03;5.47;;;1.70;;
39896;SDS011;25567;48.276;14.242;2023-07-29T14:07:30;2.47;;;1.42;;
39896;SDS011;25567;48.276;14.242;2023-07-29T14:09:56;6.60;;;1.60;;
39896;SDS011;25567;48.276;14.242;2023-07-29T14:12:27;3.67;;;1.90;;
39896;SDS011;25567;48.276;14.242;2023-07-29T14:14:53;7.80;;;1.88;;
39896;SDS011;25567;48.276;14.242;2023-07-29T14:17:20;3.50;;;1.35;;
39896;SDS011;25567;48.276;14.242;2023-07-29T14:19:46;4.65;;;1.73;;
39896;SDS011;25567;48.276;14.242;2023-07-29T14:22:12;4.25;;;1.70;;
39896;SDS011;25567;48.276;14.242;2023-07-29T14:24:39;5.97;;;1.98;;
39896;SDS011;25567;48.276;14.242;2023-07-29T14:27:06;10.32;;;1.55;;
39896;SDS011;25567;48.276;14.242;2023-07-29T14:29:32;5.03;;;1.90;;
39896;SDS011;25567;48.276;14.242;2023-07-29T14:31:58;5.65;;;2.15;;
39896;SDS011;25567;48.276;14.242;2023-07-29T14:34:25;4.63;;;1.35;;
39896;SDS011;25567;48.276;14.242;2023-07-29T14:36:52;8.13;;;1.33;;
39896;SDS011;25567;48.276;14.242;2023-07-29T14:39:19;6.28;;;1.50;;
39896;SDS011;25567;48.276;14.242;2023-07-29T14:41:45;3.90;;;1.45;;
39896;SDS011;25567;48.276;14.242;2023-07-29T14:44:12;3.10;;;1.40;;
39896;SDS011;25567;48.276;14.242;2023-07-29T14:46:39;4.82;;;1.50;;
39896;SDS011;25567;48.276;14.242;2023-07-29T14:49:05;3.85;;;1.45;;
39896;SDS011;25567;48.276;14.242;2023-07-29T14:51:32;4.65;;;2.00;;
39896;SDS011;25567;48.276;14.242;2023-07-29T14:53:58;3.35;;;1.33;;